sensor_id;sensor_type;location;lat;lon;timestamp;temperature;humidity
30572;DHT22;17348;50.948;10.696;2022-10-31T00:00:49;14.30;99.90
30572;DHT22;17348;50.948;10.696;2022-10-31T00:03:52;14.20;99.90
30572;DHT22;17348;50.948;10.696;2022-10-31T00:06:54;14.10;99.90
30572;DHT22;17348;50.948;10.696;2022-10-31T00:09:56;14.10;99.90
30572;DHT22;17348;50.948;10.696;2022-10-31T00:13:00;13.90;99.90
30572;DHT22;17348;50.948;10.696;2022-10-31T00:16:02;13.80;99.90
30572;DHT22;17348;50.948;10.696;2022-10-31T00:19:06;13.80;99.90
30572;DHT22;17348;50.948;10.696;2022-10-31T00:22:08;13.70;99.90
30572;DHT22;17348;50.948;10.696;2022-10-31T00:25:10;13.60;99.90
30572;DHT22;17348;50.948;10.696;2022-10-31T00:28:14;13.50;99.90
30572;DHT22;17348;50.948;10.696;2022-10-31T00:31:17;13.50;99.90
30572;DHT22;17348;50.948;10.696;2022-10-31T00:34:19;13.40;99.90
30572;DHT22;17348;50.948;10.696;2022-10-31T00:37:21;13.40;99.90
30572;DHT22;17348;50.948;10.696;2022-10-31T00:40:23;13.30;99.90
30572;DHT22;17348;50.948;10.696;2022-10-31T00:43:27;13.30;99.90
30572;DHT22;17348;50.948;10.696;2022-10-31T00:46:29;13.20;99.90
30572;DHT22;17348;50.948;10.696;2022-10-31T00:49:31;13.10;99.90
30572;DHT22;17348;50.948;10.696;2022-10-31T00:52:34;13.00;99.90
30572;DHT22;17348;50.948;10.696;2022-10-31T00:55:36;13.00;99.90
30572;DHT22;17348;50.948;10.696;2022-10-31T00:58:40;13.00;99.90
30572;DHT22;17348;50.948;10.696;2022-10-31T01:01:42;12.90;99.90
30572;DHT22;17348;50.948;10.696;2022-10-31T01:04:44;12.90;99.90
30572;DHT22;17348;50.948;10.696;2022-10-31T01:07:46;12.90;99.90
30572;DHT22;17348;50.948;10.696;2022-10-31T01:10:58;12.80;99.90
30572;DHT22;17348;50.948;10.696;2022-10-31T01:14:02;12.70;99.90
30572;DHT22;17348;50.948;10.696;2022-10-31T01:17:04;12.70;99.90
30572;DHT22;17348;50.948;10.696;2022-10-31T01:20:08;12.60;99.90
30572;DHT22;17348;50.948;10.696;2022-10-31T01:23:10;12.60;99.90
30572;DHT22;17348;50.948;10.696;2022-10-31T01:26:14;12.60;99.90
30572;DHT22;17348;50.948;10.696;2022-10-31T01:29:18;12.50;99.90
30572;DHT22;17348;50.948;10.696;2022-10-31T01:32:20;12.50;99.90
30572;DHT22;17348;50.948;10.696;2022-10-31T01:35:22;12.50;99.90
30572;DHT22;17348;50.948;10.696;2022-10-31T01:38:24;12.40;99.90
30572;DHT22;17348;50.948;10.696;2022-10-31T01:41:29;12.40;99.90
30572;DHT22;17348;50.948;10.696;2022-10-31T01:44:59;12.40;99.90
30572;DHT22;17348;50.948;10.696;2022-10-31T01:48:02;12.40;99.90
30572;DHT22;17348;50.948;10.696;2022-10-31T01:51:04;12.40;99.90
30572;DHT22;17348;50.948;10.696;2022-10-31T01:54:09;12.30;99.90
30572;DHT22;17348;50.948;10.696;2022-10-31T01:57:14;12.30;99.90
30572;DHT22;17348;50.948;10.696;2022-10-31T02:00:20;12.30;99.90
30572;DHT22;17348;50.948;10.696;2022-10-31T02:03:23;12.20;99.90
30572;DHT22;17348;50.948;10.696;2022-10-31T02:06:32;12.20;99.90
30572;DHT22;17348;50.948;10.696;2022-10-31T02:09:36;12.20;99.90
30572;DHT22;17348;50.948;10.696;2022-10-31T02:12:40;12.20;99.90
30572;DHT22;17348;50.948;10.696;2022-10-31T02:15:45;12.10;99.90
30572;DHT22;17348;50.948;10.696;2022-10-31T02:18:49;12.10;99.90
30572;DHT22;17348;50.948;10.696;2022-10-31T02:21:56;12.10;99.90
30572;DHT22;17348;50.948;10.696;2022-10-31T02:25:13;12.00;99.90
30572;DHT22;17348;50.948;10.696;2022-10-31T02:28:40;12.00;99.90
30572;DHT22;17348;50.948;10.696;2022-10-31T02:31:54;12.00;99.90
30572;DHT22;17348;50.948;10.696;2022-10-31T02:35:10;12.00;99.90
30572;DHT22;17348;50.948;10.696;2022-10-31T02:38:25;12.00;99.90
30572;DHT22;17348;50.948;10.696;2022-10-31T02:41:32;12.00;99.90
30572;DHT22;17348;50.948;10.696;2022-10-31T02:44:42;12.00;99.90
30572;DHT22;17348;50.948;10.696;2022-10-31T02:47:49;12.00;99.90
30572;DHT22;17348;50.948;10.696;2022-10-31T02:50:56;12.00;99.90
30572;DHT22;17348;50.948;10.696;2022-10-31T02:53:59;11.90;99.90
30572;DHT22;17348;50.948;10.696;2022-10-31T02:57:05;11.90;99.90
30572;DHT22;17348;50.948;10.696;2022-10-31T03:00:09;11.80;99.90
30572;DHT22;17348;50.948;10.696;2022-10-31T03:03:16;11.80;99.90
30572;DHT22;17348;50.948;10.696;2022-10-31T03:06:26;11.70;99.90
30572;DHT22;17348;50.948;10.696;2022-10-31T03:09:38;11.70;99.90
30572;DHT22;17348;50.948;10.696;2022-10-31T03:12:49;11.60;99.90
30572;DHT22;17348;50.948;10.696;2022-10-31T03:15:55;11.60;99.90
30572;DHT22;17348;50.948;10.696;2022-10-31T03:19:07;11.60;99.90
30572;DHT22;17348;50.948;10.696;2022-10-31T03:22:15;11.50;99.90
30572;DHT22;17348;50.948;10.696;2022-10-31T03:25:18;11.50;99.90
30572;DHT22;17348;50.948;10.696;2022-10-31T03:28:25;11.50;99.90
30572;DHT22;17348;50.948;10.696;2022-10-31T03:31:32;11.50;99.90
30572;DHT22;17348;50.948;10.696;2022-10-31T03:34:39;11.40;99.90
30572;DHT22;17348;50.948;10.696;2022-10-31T03:37:42;11.40;99.90
30572;DHT22;17348;50.948;10.696;2022-10-31T03:40:47;11.40;99.90
30572;DHT22;17348;50.948;10.696;2022-10-31T03:43:55;11.30;99.90
30572;DHT22;17348;50.948;10.696;2022-10-31T03:47:00;11.30;99.90
30572;DHT22;17348;50.948;10.696;2022-10-31T03:50:06;11.30;99.90
30572;DHT22;17348;50.948;10.696;2022-10-31T03:53:12;11.30;99.90
30572;DHT22;17348;50.948;10.696;2022-10-31T03:56:19;11.30;99.90
30572;DHT22;17348;50.948;10.696;2022-10-31T03:59:26;11.30;99.90
30572;DHT22;17348;50.948;10.696;2022-10-31T04:02:32;11.30;99.90
30572;DHT22;17348;50.948;10.696;2022-10-31T04:05:37;11.30;99.90
30572;DHT22;17348;50.948;10.696;2022-10-31T04:08:44;11.20;99.90
30572;DHT22;17348;50.948;10.696;2022-10-31T04:11:50;11.20;99.90
30572;DHT22;17348;50.948;10.696;2022-10-31T04:14:55;11.20;99.90
30572;DHT22;17348;50.948;10.696;2022-10-31T04:17:59;11.20;99.90
30572;DHT22;17348;50.948;10.696;2022-10-31T04:21:05;11.10;99.90
30572;DHT22;17348;50.948;10.696;2022-10-31T04:24:07;11.10;99.90
30572;DHT22;17348;50.948;10.696;2022-10-31T04:27:09;11.00;99.90
30572;DHT22;17348;50.948;10.696;2022-10-31T04:30:12;11.00;99.90
30572;DHT22;17348;50.948;10.696;2022-10-31T04:33:15;10.90;99.90
30572;DHT22;17348;50.948;10.696;2022-10-31T04:36:19;10.90;99.90
30572;DHT22;17348;50.948;10.696;2022-10-31T04:39:21;10.90;99.90
30572;DHT22;17348;50.948;10.696;2022-10-31T04:42:23;11.00;99.90
30572;DHT22;17348;50.948;10.696;2022-10-31T04:45:25;10.90;99.90
30572;DHT22;17348;50.948;10.696;2022-10-31T04:48:27;11.00;99.90
30572;DHT22;17348;50.948;10.696;2022-10-31T04:51:31;11.00;99.90
30572;DHT22;17348;50.948;10.696;2022-10-31T04:54:33;11.00;99.90
30572;DHT22;17348;50.948;10.696;2022-10-31T04:57:40;11.00;99.90
30572;DHT22;17348;50.948;10.696;2022-10-31T05:00:43;11.00;99.90
30572;DHT22;17348;50.948;10.696;2022-10-31T05:03:45;11.00;99.90
30572;DHT22;17348;50.948;10.696;2022-10-31T05:06:48;11.00;99.90
30572;DHT22;17348;50.948;10.696;2022-10-31T05:09:51;10.90;99.90
30572;DHT22;17348;50.948;10.696;2022-10-31T05:12:54;10.90;99.90
30572;DHT22;17348;50.948;10.696;2022-10-31T05:15:57;10.90;99.90
30572;DHT22;17348;50.948;10.696;2022-10-31T05:18:59;10.80;99.90
30572;DHT22;17348;50.948;10.696;2022-10-31T05:22:02;10.80;99.90
30572;DHT22;17348;50.948;10.696;2022-10-31T05:25:05;10.80;99.90
30572;DHT22;17348;50.948;10.696;2022-10-31T05:28:08;10.80;99.90
30572;DHT22;17348;50.948;10.696;2022-10-31T05:31:10;10.70;99.90
30572;DHT22;17348;50.948;10.696;2022-10-31T05:34:12;10.70;99.90
30572;DHT22;17348;50.948;10.696;2022-10-31T05:37:15;10.60;99.90
30572;DHT22;17348;50.948;10.696;2022-10-31T05:40:19;10.60;99.90
30572;DHT22;17348;50.948;10.696;2022-10-31T05:43:21;10.60;99.90
30572;DHT22;17348;50.948;10.696;2022-10-31T05:46:23;10.60;99.90
30572;DHT22;17348;50.948;10.696;2022-10-31T05:49:25;10.60;99.90
30572;DHT22;17348;50.948;10.696;2022-10-31T05:52:29;10.60;99.90
30572;DHT22;17348;50.948;10.696;2022-10-31T05:55:31;10.60;99.90
30572;DHT22;17348;50.948;10.696;2022-10-31T05:58:34;10.60;99.90
30572;DHT22;17348;50.948;10.696;2022-10-31T06:01:36;10.60;99.90
30572;DHT22;17348;50.948;10.696;2022-10-31T06:04:38;10.50;99.90
30572;DHT22;17348;50.948;10.696;2022-10-31T06:07:42;10.50;99.90
30572;DHT22;17348;50.948;10.696;2022-10-31T06:10:44;10.50;99.90
30572;DHT22;17348;50.948;10.696;2022-10-31T06:13:46;10.50;99.90
30572;DHT22;17348;50.948;10.696;2022-10-31T06:16:48;10.50;99.90
30572;DHT22;17348;50.948;10.696;2022-10-31T06:19:50;10.50;99.90
30572;DHT22;17348;50.948;10.696;2022-10-31T06:22:54;10.50;99.90
30572;DHT22;17348;50.948;10.696;2022-10-31T06:25:56;10.60;99.90
30572;DHT22;17348;50.948;10.696;2022-10-31T06:28:58;10.60;99.90
30572;DHT22;17348;50.948;10.696;2022-10-31T06:32:01;10.60;99.90
30572;DHT22;17348;50.948;10.696;2022-10-31T06:35:03;10.60;99.90
30572;DHT22;17348;50.948;10.696;2022-10-31T06:38:07;10.60;99.90
30572;DHT22;17348;50.948;10.696;2022-10-31T06:41:09;10.70;99.90
30572;DHT22;17348;50.948;10.696;2022-10-31T06:44:11;10.70;99.90
30572;DHT22;17348;50.948;10.696;2022-10-31T06:47:14;10.80;99.90
30572;DHT22;17348;50.948;10.696;2022-10-31T06:50:16;10.80;99.90
30572;DHT22;17348;50.948;10.696;2022-10-31T06:53:19;10.90;99.90
30572;DHT22;17348;50.948;10.696;2022-10-31T06:56:21;10.90;99.90
30572;DHT22;17348;50.948;10.696;2022-10-31T06:59:24;11.00;99.90
30572;DHT22;17348;50.948;10.696;2022-10-31T07:02:26;11.00;99.90
30572;DHT22;17348;50.948;10.696;2022-10-31T07:05:29;11.20;99.90
30572;DHT22;17348;50.948;10.696;2022-10-31T07:08:35;11.30;99.90
30572;DHT22;17348;50.948;10.696;2022-10-31T07:11:38;11.40;99.90
30572;DHT22;17348;50.948;10.696;2022-10-31T07:14:40;11.40;99.90
30572;DHT22;17348;50.948;10.696;2022-10-31T07:17:42;11.40;99.90
30572;DHT22;17348;50.948;10.696;2022-10-31T07:20:45;11.50;99.90
30572;DHT22;17348;50.948;10.696;2022-10-31T07:23:49;11.60;99.90
30572;DHT22;17348;50.948;10.696;2022-10-31T07:26:51;11.70;99.90
30572;DHT22;17348;50.948;10.696;2022-10-31T07:29:53;11.70;99.90
30572;DHT22;17348;50.948;10.696;2022-10-31T07:32:55;11.80;99.90
30572;DHT22;17348;50.948;10.696;2022-10-31T07:35:58;11.90;99.90
30572;DHT22;17348;50.948;10.696;2022-10-31T07:39:02;12.00;99.90
30572;DHT22;17348;50.948;10.696;2022-10-31T07:42:04;12.10;99.90
30572;DHT22;17348;50.948;10.696;2022-10-31T07:45:08;12.20;99.90
30572;DHT22;17348;50.948;10.696;2022-10-31T07:48:11;12.30;99.90
30572;DHT22;17348;50.948;10.696;2022-10-31T07:51:13;12.50;99.90
30572;DHT22;17348;50.948;10.696;2022-10-31T07:54:17;12.50;99.90
30572;DHT22;17348;50.948;10.696;2022-10-31T07:57:19;12.60;99.90
30572;DHT22;17348;50.948;10.696;2022-10-31T08:00:21;12.70;99.90
30572;DHT22;17348;50.948;10.696;2022-10-31T08:03:23;12.80;99.90
30572;DHT22;17348;50.948;10.696;2022-10-31T08:06:26;12.90;99.90
30572;DHT22;17348;50.948;10.696;2022-10-31T08:09:29;13.00;99.90
30572;DHT22;17348;50.948;10.696;2022-10-31T08:12:31;13.20;99.90
30572;DHT22;17348;50.948;10.696;2022-10-31T08:15:34;13.30;99.90
30572;DHT22;17348;50.948;10.696;2022-10-31T08:18:39;13.50;99.90
30572;DHT22;17348;50.948;10.696;2022-10-31T08:21:41;13.60;99.90
30572;DHT22;17348;50.948;10.696;2022-10-31T08:24:44;13.80;99.90
30572;DHT22;17348;50.948;10.696;2022-10-31T08:27:49;13.90;99.90
30572;DHT22;17348;50.948;10.696;2022-10-31T08:30:52;14.10;99.90
30572;DHT22;17348;50.948;10.696;2022-10-31T08:33:54;14.30;99.90
30572;DHT22;17348;50.948;10.696;2022-10-31T08:36:56;14.40;99.90
30572;DHT22;17348;50.948;10.696;2022-10-31T08:40:00;14.60;99.90
30572;DHT22;17348;50.948;10.696;2022-10-31T08:43:04;14.80;99.90
30572;DHT22;17348;50.948;10.696;2022-10-31T08:46:07;14.90;99.90
30572;DHT22;17348;50.948;10.696;2022-10-31T08:49:09;15.10;99.90
30572;DHT22;17348;50.948;10.696;2022-10-31T08:52:11;15.20;99.90
30572;DHT22;17348;50.948;10.696;2022-10-31T08:55:17;15.40;99.90
30572;DHT22;17348;50.948;10.696;2022-10-31T08:58:19;15.50;99.90
30572;DHT22;17348;50.948;10.696;2022-10-31T09:01:22;15.60;99.90
30572;DHT22;17348;50.948;10.696;2022-10-31T09:04:24;15.80;99.90
30572;DHT22;17348;50.948;10.696;2022-10-31T09:07:26;15.90;99.90
30572;DHT22;17348;50.948;10.696;2022-10-31T09:10:31;16.10;99.90
30572;DHT22;17348;50.948;10.696;2022-10-31T09:13:34;16.20;99.90
30572;DHT22;17348;50.948;10.696;2022-10-31T09:16:36;16.40;99.90
30572;DHT22;17348;50.948;10.696;2022-10-31T09:19:38;16.60;99.90
30572;DHT22;17348;50.948;10.696;2022-10-31T09:22:41;16.70;99.90
30572;DHT22;17348;50.948;10.696;2022-10-31T09:25:45;16.90;99.90
30572;DHT22;17348;50.948;10.696;2022-10-31T09:28:47;17.00;99.90
30572;DHT22;17348;50.948;10.696;2022-10-31T09:31:49;17.10;99.90
30572;DHT22;17348;50.948;10.696;2022-10-31T09:34:52;17.20;99.90
30572;DHT22;17348;50.948;10.696;2022-10-31T09:37:54;17.30;99.90
30572;DHT22;17348;50.948;10.696;2022-10-31T09:41:07;17.30;99.90
30572;DHT22;17348;50.948;10.696;2022-10-31T09:44:18;17.40;99.90
30572;DHT22;17348;50.948;10.696;2022-10-31T09:47:31;17.60;99.90
30572;DHT22;17348;50.948;10.696;2022-10-31T09:50:39;17.70;99.90
30572;DHT22;17348;50.948;10.696;2022-10-31T09:53:45;17.80;99.90
30572;DHT22;17348;50.948;10.696;2022-10-31T09:56:51;17.80;99.90
30572;DHT22;17348;50.948;10.696;2022-10-31T09:59:53;17.90;99.90
30572;DHT22;17348;50.948;10.696;2022-10-31T10:02:59;18.00;99.90
30572;DHT22;17348;50.948;10.696;2022-10-31T10:06:11;18.00;99.90
30572;DHT22;17348;50.948;10.696;2022-10-31T10:09:15;18.10;99.90
30572;DHT22;17348;50.948;10.696;2022-10-31T10:12:28;18.20;99.90
30572;DHT22;17348;50.948;10.696;2022-10-31T10:15:45;18.20;99.90
30572;DHT22;17348;50.948;10.696;2022-10-31T10:18:59;18.20;99.90
30572;DHT22;17348;50.948;10.696;2022-10-31T10:22:12;18.20;99.90
30572;DHT22;17348;50.948;10.696;2022-10-31T10:25:22;18.20;99.90
30572;DHT22;17348;50.948;10.696;2022-10-31T10:28:29;18.30;99.90
30572;DHT22;17348;50.948;10.696;2022-10-31T10:31:41;18.20;99.90
30572;DHT22;17348;50.948;10.696;2022-10-31T10:34:49;18.20;99.90
30572;DHT22;17348;50.948;10.696;2022-10-31T10:37:57;18.20;99.90
30572;DHT22;17348;50.948;10.696;2022-10-31T10:41:07;18.20;99.90
30572;DHT22;17348;50.948;10.696;2022-10-31T10:44:13;18.10;99.90
30572;DHT22;17348;50.948;10.696;2022-10-31T10:47:16;18.20;99.90
30572;DHT22;17348;50.948;10.696;2022-10-31T10:50:40;18.20;99.90
30572;DHT22;17348;50.948;10.696;2022-10-31T10:53:47;18.20;99.90
30572;DHT22;17348;50.948;10.696;2022-10-31T10:57:11;18.30;99.90
30572;DHT22;17348;50.948;10.696;2022-10-31T11:00:21;18.30;99.90
30572;DHT22;17348;50.948;10.696;2022-10-31T11:03:24;18.30;99.90
30572;DHT22;17348;50.948;10.696;2022-10-31T11:06:26;18.30;99.90
30572;DHT22;17348;50.948;10.696;2022-10-31T11:09:28;18.40;99.90
30572;DHT22;17348;50.948;10.696;2022-10-31T11:12:32;18.40;99.90
30572;DHT22;17348;50.948;10.696;2022-10-31T11:15:39;18.40;99.90
30572;DHT22;17348;50.948;10.696;2022-10-31T11:18:51;18.40;99.90
30572;DHT22;17348;50.948;10.696;2022-10-31T11:21:54;18.50;99.90
30572;DHT22;17348;50.948;10.696;2022-10-31T11:44:30;18.70;99.90
30572;DHT22;17348;50.948;10.696;2022-10-31T11:47:34;18.70;99.90
30572;DHT22;17348;50.948;10.696;2022-10-31T11:50:40;18.80;99.90
30572;DHT22;17348;50.948;10.696;2022-10-31T11:53:50;18.80;99.90
30572;DHT22;17348;50.948;10.696;2022-10-31T11:56:53;18.80;99.90
30572;DHT22;17348;50.948;10.696;2022-10-31T11:59:58;18.90;99.90
30572;DHT22;17348;50.948;10.696;2022-10-31T12:03:13;19.00;99.90
30572;DHT22;17348;50.948;10.696;2022-10-31T12:06:20;18.90;99.90
30572;DHT22;17348;50.948;10.696;2022-10-31T12:09:25;18.90;99.90
30572;DHT22;17348;50.948;10.696;2022-10-31T12:12:50;19.00;99.90
30572;DHT22;17348;50.948;10.696;2022-10-31T12:16:00;19.00;99.90
30572;DHT22;17348;50.948;10.696;2022-10-31T12:19:06;19.00;99.90
30572;DHT22;17348;50.948;10.696;2022-10-31T12:22:22;19.00;99.90
30572;DHT22;17348;50.948;10.696;2022-10-31T12:25:36;19.10;99.90
30572;DHT22;17348;50.948;10.696;2022-10-31T12:28:52;19.10;99.90
30572;DHT22;17348;50.948;10.696;2022-10-31T12:32:14;19.00;99.90
30572;DHT22;17348;50.948;10.696;2022-10-31T12:38:53;18.90;99.90
30572;DHT22;17348;50.948;10.696;2022-10-31T12:42:04;18.90;99.90
30572;DHT22;17348;50.948;10.696;2022-10-31T12:45:34;18.80;99.90
30572;DHT22;17348;50.948;10.696;2022-10-31T12:48:52;18.70;99.90
30572;DHT22;17348;50.948;10.696;2022-10-31T12:52:08;18.60;99.90
30572;DHT22;17348;50.948;10.696;2022-10-31T12:55:25;18.60;99.90
30572;DHT22;17348;50.948;10.696;2022-10-31T12:58:33;18.60;99.90
30572;DHT22;17348;50.948;10.696;2022-10-31T13:01:40;18.50;99.90
30572;DHT22;17348;50.948;10.696;2022-10-31T13:04:50;18.50;99.90
30572;DHT22;17348;50.948;10.696;2022-10-31T13:07:56;18.40;99.90
30572;DHT22;17348;50.948;10.696;2022-10-31T13:11:05;18.30;99.90
30572;DHT22;17348;50.948;10.696;2022-10-31T13:14:13;18.30;99.90
30572;DHT22;17348;50.948;10.696;2022-10-31T13:17:24;18.30;99.90
30572;DHT22;17348;50.948;10.696;2022-10-31T13:20:32;18.30;99.90
30572;DHT22;17348;50.948;10.696;2022-10-31T13:23:36;18.30;99.90
30572;DHT22;17348;50.948;10.696;2022-10-31T13:26:43;18.20;99.90
30572;DHT22;17348;50.948;10.696;2022-10-31T13:29:57;18.20;99.90
30572;DHT22;17348;50.948;10.696;2022-10-31T13:33:04;18.20;99.90
30572;DHT22;17348;50.948;10.696;2022-10-31T13:36:18;18.20;99.90
30572;DHT22;17348;50.948;10.696;2022-10-31T13:39:31;18.10;99.90
30572;DHT22;17348;50.948;10.696;2022-10-31T13:42:45;18.10;99.90
30572;DHT22;17348;50.948;10.696;2022-10-31T13:45:53;18.00;99.90
30572;DHT22;17348;50.948;10.696;2022-10-31T13:48:56;18.00;99.90
30572;DHT22;17348;50.948;10.696;2022-10-31T13:52:13;18.00;99.90
30572;DHT22;17348;50.948;10.696;2022-10-31T13:55:35;18.00;99.90
30572;DHT22;17348;50.948;10.696;2022-10-31T13:58:38;17.90;99.90
30572;DHT22;17348;50.948;10.696;2022-10-31T14:01:46;17.90;99.90
30572;DHT22;17348;50.948;10.696;2022-10-31T14:04:51;17.90;99.90
30572;DHT22;17348;50.948;10.696;2022-10-31T14:07:58;17.90;99.90
30572;DHT22;17348;50.948;10.696;2022-10-31T14:11:01;17.90;99.90
30572;DHT22;17348;50.948;10.696;2022-10-31T14:14:11;17.90;99.90
30572;DHT22;17348;50.948;10.696;2022-10-31T14:17:21;17.90;99.90
30572;DHT22;17348;50.948;10.696;2022-10-31T14:20:37;17.80;99.90
30572;DHT22;17348;50.948;10.696;2022-10-31T14:23:41;17.80;99.90
30572;DHT22;17348;50.948;10.696;2022-10-31T14:26:52;17.80;99.90
30572;DHT22;17348;50.948;10.696;2022-10-31T14:29:55;17.80;99.90
30572;DHT22;17348;50.948;10.696;2022-10-31T14:33:00;17.70;99.90
30572;DHT22;17348;50.948;10.696;2022-10-31T14:36:07;17.60;99.90
30572;DHT22;17348;50.948;10.696;2022-10-31T14:39:18;17.60;99.90
30572;DHT22;17348;50.948;10.696;2022-10-31T14:42:37;17.60;99.90
30572;DHT22;17348;50.948;10.696;2022-10-31T14:45:49;17.60;99.90
30572;DHT22;17348;50.948;10.696;2022-10-31T14:49:06;17.50;99.90
30572;DHT22;17348;50.948;10.696;2022-10-31T14:52:14;17.40;99.90
30572;DHT22;17348;50.948;10.696;2022-10-31T14:55:18;17.40;99.90
30572;DHT22;17348;50.948;10.696;2022-10-31T14:58:23;17.40;99.90
30572;DHT22;17348;50.948;10.696;2022-10-31T15:01:29;17.30;99.90
30572;DHT22;17348;50.948;10.696;2022-10-31T15:04:34;17.30;99.90
30572;DHT22;17348;50.948;10.696;2022-10-31T15:07:48;17.20;99.90
30572;DHT22;17348;50.948;10.696;2022-10-31T15:10:52;17.20;99.90
30572;DHT22;17348;50.948;10.696;2022-10-31T15:13:56;17.20;99.90
30572;DHT22;17348;50.948;10.696;2022-10-31T15:17:01;17.10;99.90
30572;DHT22;17348;50.948;10.696;2022-10-31T15:20:04;17.10;99.90
30572;DHT22;17348;50.948;10.696;2022-10-31T15:23:11;17.00;99.90
30572;DHT22;17348;50.948;10.696;2022-10-31T15:26:21;17.00;99.90
30572;DHT22;17348;50.948;10.696;2022-10-31T15:29:25;17.00;99.90
30572;DHT22;17348;50.948;10.696;2022-10-31T15:32:29;16.90;99.90
30572;DHT22;17348;50.948;10.696;2022-10-31T15:35:31;16.80;99.90
30572;DHT22;17348;50.948;10.696;2022-10-31T15:38:33;16.80;99.90
30572;DHT22;17348;50.948;10.696;2022-10-31T15:41:42;16.80;99.90
30572;DHT22;17348;50.948;10.696;2022-10-31T15:44:49;16.80;99.90
30572;DHT22;17348;50.948;10.696;2022-10-31T15:47:55;16.70;99.90
30572;DHT22;17348;50.948;10.696;2022-10-31T15:51:01;16.70;99.90
30572;DHT22;17348;50.948;10.696;2022-10-31T15:54:10;16.70;99.90
30572;DHT22;17348;50.948;10.696;2022-10-31T15:57:16;16.60;99.90
30572;DHT22;17348;50.948;10.696;2022-10-31T16:00:24;16.60;99.90
30572;DHT22;17348;50.948;10.696;2022-10-31T16:03:28;16.60;99.90
30572;DHT22;17348;50.948;10.696;2022-10-31T16:06:31;16.50;99.90
30572;DHT22;17348;50.948;10.696;2022-10-31T16:09:34;16.50;99.90
30572;DHT22;17348;50.948;10.696;2022-10-31T16:12:45;16.40;99.90
30572;DHT22;17348;50.948;10.696;2022-10-31T16:15:50;16.40;99.90
30572;DHT22;17348;50.948;10.696;2022-10-31T16:18:54;16.30;99.90
30572;DHT22;17348;50.948;10.696;2022-10-31T16:22:04;16.30;99.90
30572;DHT22;17348;50.948;10.696;2022-10-31T16:25:10;16.20;99.90
30572;DHT22;17348;50.948;10.696;2022-10-31T16:28:17;16.30;99.90
30572;DHT22;17348;50.948;10.696;2022-10-31T16:31:28;16.20;99.90
30572;DHT22;17348;50.948;10.696;2022-10-31T16:34:30;16.10;99.90
30572;DHT22;17348;50.948;10.696;2022-10-31T16:37:32;16.10;99.90
30572;DHT22;17348;50.948;10.696;2022-10-31T16:40:35;16.10;99.90
30572;DHT22;17348;50.948;10.696;2022-10-31T16:43:40;16.00;99.90
30572;DHT22;17348;50.948;10.696;2022-10-31T16:46:43;16.00;99.90
30572;DHT22;17348;50.948;10.696;2022-10-31T16:49:48;15.90;99.90
30572;DHT22;17348;50.948;10.696;2022-10-31T16:52:51;15.90;99.90
30572;DHT22;17348;50.948;10.696;2022-10-31T16:55:55;15.90;99.90
30572;DHT22;17348;50.948;10.696;2022-10-31T16:59:01;15.90;99.90
30572;DHT22;17348;50.948;10.696;2022-10-31T17:02:04;15.80;99.90
30572;DHT22;17348;50.948;10.696;2022-10-31T17:05:10;15.80;99.90
30572;DHT22;17348;50.948;10.696;2022-10-31T17:08:13;15.80;99.90
30572;DHT22;17348;50.948;10.696;2022-10-31T17:11:19;15.80;99.90
30572;DHT22;17348;50.948;10.696;2022-10-31T17:14:23;15.80;99.90
30572;DHT22;17348;50.948;10.696;2022-10-31T17:17:25;15.80;99.90
30572;DHT22;17348;50.948;10.696;2022-10-31T17:20:30;15.70;99.90
30572;DHT22;17348;50.948;10.696;2022-10-31T17:23:32;15.70;99.90
30572;DHT22;17348;50.948;10.696;2022-10-31T17:26:34;15.60;99.90
30572;DHT22;17348;50.948;10.696;2022-10-31T17:29:38;15.60;99.90
30572;DHT22;17348;50.948;10.696;2022-10-31T17:32:41;15.60;99.90
30572;DHT22;17348;50.948;10.696;2022-10-31T17:35:43;15.50;99.90
30572;DHT22;17348;50.948;10.696;2022-10-31T17:38:46;15.50;99.90
30572;DHT22;17348;50.948;10.696;2022-10-31T17:41:49;15.40;99.90
30572;DHT22;17348;50.948;10.696;2022-10-31T17:44:53;15.40;99.90
30572;DHT22;17348;50.948;10.696;2022-10-31T17:47:56;15.40;99.90
30572;DHT22;17348;50.948;10.696;2022-10-31T17:50:59;15.30;99.90
30572;DHT22;17348;50.948;10.696;2022-10-31T17:54:02;15.30;99.90
30572;DHT22;17348;50.948;10.696;2022-10-31T17:57:05;15.20;99.90
30572;DHT22;17348;50.948;10.696;2022-10-31T18:00:12;15.20;99.90
30572;DHT22;17348;50.948;10.696;2022-10-31T18:03:14;15.20;99.90
30572;DHT22;17348;50.948;10.696;2022-10-31T18:06:17;15.20;99.90
30572;DHT22;17348;50.948;10.696;2022-10-31T18:09:19;15.20;99.90
30572;DHT22;17348;50.948;10.696;2022-10-31T18:12:21;15.10;99.90
30572;DHT22;17348;50.948;10.696;2022-10-31T18:15:25;15.10;99.90
30572;DHT22;17348;50.948;10.696;2022-10-31T18:18:27;15.10;99.90
30572;DHT22;17348;50.948;10.696;2022-10-31T18:21:29;15.10;99.90
30572;DHT22;17348;50.948;10.696;2022-10-31T18:24:32;15.00;99.90
30572;DHT22;17348;50.948;10.696;2022-10-31T18:27:34;14.90;99.90
30572;DHT22;17348;50.948;10.696;2022-10-31T18:30:39;14.90;99.90
30572;DHT22;17348;50.948;10.696;2022-10-31T18:33:42;14.80;99.90
30572;DHT22;17348;50.948;10.696;2022-10-31T18:36:44;14.80;99.90
30572;DHT22;17348;50.948;10.696;2022-10-31T18:39:47;14.70;99.90
30572;DHT22;17348;50.948;10.696;2022-10-31T18:42:49;14.70;99.90
30572;DHT22;17348;50.948;10.696;2022-10-31T18:45:52;14.60;99.90
30572;DHT22;17348;50.948;10.696;2022-10-31T18:48:55;14.60;99.90
30572;DHT22;17348;50.948;10.696;2022-10-31T18:51:57;14.60;99.90
30572;DHT22;17348;50.948;10.696;2022-10-31T18:55:00;14.50;99.90
30572;DHT22;17348;50.948;10.696;2022-10-31T18:58:02;14.50;99.90
30572;DHT22;17348;50.948;10.696;2022-10-31T19:01:06;14.40;99.90
30572;DHT22;17348;50.948;10.696;2022-10-31T19:04:09;14.30;99.90
30572;DHT22;17348;50.948;10.696;2022-10-31T19:07:11;14.30;99.90
30572;DHT22;17348;50.948;10.696;2022-10-31T19:10:14;14.20;99.90
30572;DHT22;17348;50.948;10.696;2022-10-31T19:13:16;14.10;99.90
30572;DHT22;17348;50.948;10.696;2022-10-31T19:16:20;14.10;99.90
30572;DHT22;17348;50.948;10.696;2022-10-31T19:19:22;14.00;99.90
30572;DHT22;17348;50.948;10.696;2022-10-31T19:22:24;14.00;99.90
30572;DHT22;17348;50.948;10.696;2022-10-31T19:25:27;13.90;99.90
30572;DHT22;17348;50.948;10.696;2022-10-31T19:28:29;13.90;99.90
30572;DHT22;17348;50.948;10.696;2022-10-31T19:31:33;13.90;99.90
30572;DHT22;17348;50.948;10.696;2022-10-31T19:34:35;13.80;99.90